createdAt,value
2023-02-20T00:01:48.216Z,8.71
2023-02-20T00:04:37.633Z,8.73
2023-02-20T00:07:27.583Z,8.70
2023-02-20T00:10:18.315Z,8.68
2023-02-20T00:13:07.217Z,8.66
2023-02-20T00:15:57.668Z,8.64
2023-02-20T00:18:46.640Z,8.64
2023-02-20T00:21:36.184Z,8.63
2023-02-20T00:24:26.651Z,8.62
2023-02-20T00:27:15.800Z,8.55
2023-02-20T00:30:05.100Z,8.56
2023-02-20T00:32:56.155Z,8.56
2023-02-20T00:35:45.301Z,8.55
2023-02-20T00:38:34.124Z,8.51
2023-02-20T00:41:26.196Z,8.54
2023-02-20T00:44:14.828Z,8.53
2023-02-20T00:47:05.036Z,8.52
2023-02-20T00:49:55.146Z,8.55
2023-02-20T00:52:44.844Z,8.55
2023-02-20T00:55:35.142Z,8.52
2023-02-20T00:58:25.128Z,8.54
2023-02-20T01:01:15.478Z,8.46
2023-02-20T01:04:04.234Z,8.57
2023-02-20T01:06:54.359Z,8.55
2023-02-20T01:09:45.118Z,8.51
2023-02-20T01:12:37.690Z,8.51
2023-02-20T01:15:27.660Z,8.50
2023-02-20T01:18:18.941Z,8.48
2023-02-20T01:21:07.565Z,8.49
2023-02-20T01:23:57.237Z,8.52
2023-02-20T01:26:48.704Z,8.48
2023-02-20T01:29:37.675Z,8.48
2023-02-20T01:32:27.648Z,8.50
2023-02-20T01:35:17.498Z,8.49
2023-02-20T01:38:06.713Z,8.46
2023-02-20T01:40:55.939Z,8.52
2023-02-20T01:43:45.145Z,8.47
2023-02-20T01:46:51.951Z,8.46
2023-02-20T01:49:46.174Z,8.47
2023-02-20T01:52:39.239Z,8.43
2023-02-20T01:55:31.022Z,8.47
2023-02-20T01:58:24.690Z,8.48
2023-02-20T02:01:13.936Z,8.50
2023-02-20T02:04:06.765Z,8.48
2023-02-20T02:06:57.072Z,8.44
2023-02-20T02:09:53.010Z,8.45
2023-02-20T02:12:43.276Z,8.37
2023-02-20T02:15:34.143Z,8.43
2023-02-20T02:18:35.504Z,8.47
2023-02-20T02:21:59.000Z,8.47
2023-02-20T02:25:21.476Z,8.47
2023-02-20T02:28:51.811Z,8.45
2023-02-20T02:32:12.582Z,8.42
2023-02-20T02:35:27.509Z,8.41
2023-02-20T02:38:24.341Z,8.43
2023-02-20T02:41:21.900Z,8.39
2023-02-20T02:44:16.575Z,8.37
2023-02-20T02:47:11.477Z,8.41
2023-02-20T02:50:06.355Z,8.43
2023-02-20T02:52:56.812Z,8.45
2023-02-20T02:55:47.362Z,8.47
2023-02-20T02:58:37.504Z,8.45
2023-02-20T03:01:26.610Z,8.41
2023-02-20T03:04:24.140Z,8.36
2023-02-20T03:07:17.566Z,8.39
2023-02-20T03:10:10.649Z,8.39
2023-02-20T03:13:06.960Z,8.39
2023-02-20T03:15:55.819Z,8.39
2023-02-20T03:18:47.941Z,8.38
2023-02-20T03:21:39.399Z,8.35
2023-02-20T03:24:32.291Z,8.36
2023-02-20T03:27:27.513Z,8.32
2023-02-20T03:30:22.900Z,8.28
2023-02-20T03:33:32.543Z,8.22
2023-02-20T03:36:45.444Z,8.26
2023-02-20T03:39:57.340Z,8.24
2023-02-20T03:43:08.442Z,8.22
2023-02-20T03:46:04.579Z,8.20
2023-02-20T03:48:58.518Z,8.15
2023-02-20T03:51:48.796Z,8.20
2023-02-20T03:54:51.453Z,8.20
2023-02-20T03:57:46.598Z,8.14
2023-02-20T04:00:42.199Z,8.22
2023-02-20T04:03:40.086Z,8.24
2023-02-20T04:06:33.037Z,8.23
2023-02-20T04:09:29.709Z,8.19
2023-02-20T04:12:23.929Z,8.13
2023-02-20T04:15:15.368Z,8.20
2023-02-20T04:18:08.718Z,8.12
2023-02-20T04:21:02.194Z,8.12
2023-02-20T04:24:06.606Z,8.10
2023-02-20T04:26:55.774Z,8.06
2023-02-20T04:29:46.415Z,8.03
2023-02-20T04:32:35.335Z,8.03
2023-02-20T04:35:25.297Z,7.89
2023-02-20T04:38:16.980Z,7.92
2023-02-20T04:41:06.990Z,7.90
2023-02-20T04:44:17.016Z,7.90
2023-02-20T04:47:13.802Z,7.84
2023-02-20T04:50:02.867Z,7.81
2023-02-20T04:52:53.465Z,7.75
2023-02-20T04:55:44.211Z,7.82
2023-02-20T04:58:37.737Z,7.79
2023-02-20T05:01:35.614Z,7.67
2023-02-20T05:04:25.212Z,7.78
2023-02-20T05:07:13.845Z,7.77
2023-02-20T05:10:03.962Z,7.73
2023-02-20T05:12:54.369Z,7.71
2023-02-20T05:15:43.684Z,7.68
2023-02-20T05:18:32.665Z,7.67
2023-02-20T05:21:39.684Z,7.63
2023-02-20T05:24:28.520Z,7.66
2023-02-20T05:27:20.332Z,7.64
2023-02-20T05:30:12.484Z,7.64
2023-02-20T05:33:01.115Z,7.67
2023-02-20T05:35:49.978Z,7.62
2023-02-20T05:38:38.713Z,7.59
2023-02-20T05:41:27.890Z,7.60
2023-02-20T05:44:17.502Z,7.64
2023-02-20T05:47:08.559Z,7.64
2023-02-20T05:49:57.809Z,7.58
2023-02-20T05:52:47.328Z,7.55
2023-02-20T05:55:36.487Z,7.58
2023-02-20T05:58:25.522Z,7.57
2023-02-20T06:01:20.637Z,7.57
2023-02-20T06:04:10.760Z,7.50
2023-02-20T06:06:59.835Z,7.58
2023-02-20T06:09:49.722Z,7.59
2023-02-20T06:12:38.831Z,7.58
2023-02-20T06:15:27.486Z,7.54
2023-02-20T06:18:16.547Z,7.54
2023-02-20T06:21:08.506Z,7.56
2023-02-20T06:23:57.584Z,7.56
2023-02-20T06:26:47.037Z,7.43
2023-02-20T06:29:37.124Z,7.55
2023-02-20T06:32:25.818Z,7.57
2023-02-20T06:35:15.194Z,7.58
2023-02-20T06:38:05.170Z,7.63
2023-02-20T06:40:54.912Z,7.62
2023-02-20T06:43:44.026Z,7.63
2023-02-20T06:46:33.330Z,7.62
2023-02-20T06:49:21.957Z,7.67
2023-02-20T06:52:11.733Z,7.70
2023-02-20T06:55:01.662Z,7.68
2023-02-20T06:57:51.847Z,7.71
2023-02-20T07:00:41.608Z,7.72
2023-02-20T07:03:30.249Z,7.71
2023-02-20T07:06:19.804Z,7.72
2023-02-20T07:09:09.061Z,7.69
2023-02-20T07:11:59.917Z,7.73
2023-02-20T07:14:48.551Z,7.71
2023-02-20T07:17:38.117Z,7.79
2023-02-20T07:20:27.981Z,7.81
2023-02-20T07:23:16.975Z,7.86
2023-02-20T07:26:06.339Z,7.80
2023-02-20T07:28:58.880Z,7.81
2023-02-20T07:31:48.044Z,7.83
2023-02-20T07:34:36.844Z,7.85
2023-02-20T07:37:26.533Z,7.93
2023-02-20T07:40:16.221Z,7.90
2023-02-20T07:43:05.511Z,7.96
2023-02-20T07:46:01.296Z,7.92
2023-02-20T07:48:50.034Z,7.99
2023-02-20T07:51:40.282Z,8.03
2023-02-20T07:54:28.895Z,8.08
2023-02-20T07:57:19.171Z,8.10
2023-02-20T08:00:09.884Z,8.07
2023-02-20T08:03:02.833Z,8.13
2023-02-20T08:05:51.893Z,8.13
2023-02-20T08:08:40.522Z,8.19
2023-02-20T08:11:35.993Z,8.26
2023-02-20T08:14:25.032Z,8.30
2023-02-20T08:17:13.609Z,8.40
2023-02-20T08:20:03.956Z,8.45
2023-02-20T08:22:52.926Z,8.38
2023-02-20T08:25:41.566Z,8.36
2023-02-20T08:28:30.260Z,8.43
2023-02-20T08:31:31.634Z,8.45
2023-02-20T08:34:21.061Z,8.51
2023-02-20T08:37:11.931Z,8.62
2023-02-20T08:40:01.687Z,8.72
2023-02-20T08:42:51.188Z,8.80
2023-02-20T08:45:40.720Z,8.97
2023-02-20T08:48:30.018Z,9.04
2023-02-20T08:51:21.750Z,9.05
2023-02-20T08:54:11.757Z,9.15
2023-02-20T08:57:01.984Z,9.24
2023-02-20T08:59:50.604Z,9.21
2023-02-20T09:02:39.714Z,9.12
2023-02-20T09:05:28.355Z,9.07
2023-02-20T09:08:18.510Z,9.30
2023-02-20T09:11:10.107Z,9.64
2023-02-20T09:14:00.637Z,9.87
2023-02-20T09:16:53.015Z,10.17
2023-02-20T09:19:42.464Z,10.26
2023-02-20T09:22:31.045Z,10.40
2023-02-20T09:25:20.864Z,10.53
2023-02-20T09:28:10.822Z,10.80
2023-02-20T09:31:01.793Z,10.96
2023-02-20T09:33:51.605Z,11.19
2023-02-20T09:36:41.350Z,11.11
2023-02-20T09:39:31.024Z,10.90
2023-02-20T09:42:30.149Z,10.96
2023-02-20T09:45:26.944Z,11.29
2023-02-20T09:48:29.806Z,11.31
2023-02-20T09:51:23.630Z,11.34
2023-02-20T09:54:15.995Z,11.54
2023-02-20T09:57:12.215Z,11.49
2023-02-20T10:00:06.994Z,11.31
2023-02-20T10:03:10.509Z,11.22
2023-02-20T10:05:59.480Z,11.07
2023-02-20T10:08:50.947Z,11.00
2023-02-20T10:12:07.572Z,10.99
2023-02-20T10:15:20.695Z,10.95
2023-02-20T10:18:23.956Z,11.38
2023-02-20T10:21:19.984Z,11.68
2023-02-20T10:24:23.678Z,12.06
2023-02-20T10:27:22.736Z,12.19
2023-02-20T10:30:13.884Z,12.36
2023-02-20T10:33:11.896Z,12.59
2023-02-20T10:36:08.602Z,12.65
2023-02-20T10:39:04.068Z,12.93
2023-02-20T10:41:56.823Z,13.04
2023-02-20T10:44:53.040Z,13.28
2023-02-20T10:47:48.422Z,13.60
2023-02-20T10:50:43.153Z,13.72
2023-02-20T10:53:40.609Z,13.82
2023-02-20T10:56:37.301Z,13.97
2023-02-20T10:59:33.163Z,14.21
2023-02-20T11:02:27.637Z,14.44
2023-02-20T11:05:20.627Z,14.49
2023-02-20T11:08:10.029Z,14.56
2023-02-20T11:11:07.223Z,14.74
2023-02-20T11:14:00.247Z,14.77
2023-02-20T11:16:54.242Z,14.90
2023-02-20T11:19:45.016Z,15.02
2023-02-20T11:22:43.486Z,15.20
2023-02-20T11:25:34.334Z,15.15
2023-02-20T11:28:28.217Z,15.27
2023-02-20T11:31:18.335Z,15.55
2023-02-20T11:34:07.756Z,15.75
2023-02-20T11:37:06.617Z,15.52
2023-02-20T11:40:02.375Z,15.67
2023-02-20T11:42:52.666Z,15.53
2023-02-20T11:45:43.346Z,15.80
2023-02-20T11:48:32.382Z,15.86
2023-02-20T11:51:33.454Z,15.93
2023-02-20T11:54:26.258Z,16.21
2023-02-20T11:57:25.707Z,16.49
2023-02-20T12:00:20.439Z,16.87
2023-02-20T12:03:16.325Z,17.05
2023-02-20T12:06:40.289Z,17.03
2023-02-20T12:09:31.266Z,17.05
2023-02-20T12:12:23.699Z,17.01
2023-02-20T12:15:15.858Z,17.29
2023-02-20T12:18:26.339Z,17.61
2023-02-20T12:21:33.616Z,17.79
2023-02-20T12:24:38.339Z,18.02
2023-02-20T12:27:42.213Z,18.18
2023-02-20T12:30:44.822Z,18.26
2023-02-20T12:34:15.268Z,18.24
2023-02-20T12:37:16.050Z,17.87
2023-02-20T12:40:22.791Z,18.25
2023-02-20T12:43:26.381Z,18.54
2023-02-20T12:46:22.230Z,18.67
2023-02-20T12:49:26.749Z,18.57
2023-02-20T12:52:31.830Z,18.28
2023-02-20T12:55:29.075Z,18.66
2023-02-20T12:58:28.488Z,18.78
2023-02-20T13:01:34.184Z,19.01
2023-02-20T13:04:37.837Z,19.10
2023-02-20T13:07:31.569Z,19.20
2023-02-20T13:10:23.998Z,18.97
2023-02-20T13:13:14.277Z,19.04
2023-02-20T13:16:08.799Z,19.07
2023-02-20T13:19:05.461Z,19.15
2023-02-20T13:21:57.506Z,19.04
2023-02-20T13:24:48.084Z,19.22
2023-02-20T13:27:36.778Z,19.37
2023-02-20T13:30:28.899Z,19.56
2023-02-20T13:33:21.693Z,19.59
2023-02-20T13:36:39.560Z,19.74
2023-02-20T13:39:47.590Z,19.57
2023-02-20T13:42:37.074Z,19.71
2023-02-20T13:45:43.316Z,19.48
2023-02-20T13:48:43.291Z,19.59
2023-02-20T13:51:37.817Z,19.64
2023-02-20T13:54:29.962Z,19.54
2023-02-20T13:57:20.996Z,19.56
2023-02-20T14:00:24.988Z,19.83
2023-02-20T14:03:18.865Z,20.08
2023-02-20T14:06:12.045Z,19.96
2023-02-20T14:09:11.943Z,20.00
2023-02-20T14:12:09.504Z,20.03
2023-02-20T14:15:06.403Z,20.12
2023-02-20T14:17:56.108Z,20.00
2023-02-20T14:20:46.320Z,19.49
2023-02-20T14:23:35.442Z,19.45
2023-02-20T14:26:27.650Z,19.46
2023-02-20T14:29:25.723Z,19.52
2023-02-20T14:32:17.716Z,19.73
2023-02-20T14:35:14.494Z,19.72
2023-02-20T14:38:16.881Z,19.50
2023-02-20T14:41:13.747Z,19.39
2023-02-20T14:44:05.722Z,19.40
2023-02-20T14:46:57.507Z,19.32
2023-02-20T14:49:48.043Z,19.14
2023-02-20T14:52:37.645Z,18.93
2023-02-20T14:55:26.785Z,18.81
2023-02-20T14:58:18.270Z,18.68
2023-02-20T15:01:17.349Z,18.75
2023-02-20T15:04:12.862Z,18.89
2023-02-20T15:07:08.512Z,19.05
2023-02-20T15:10:01.225Z,19.06
2023-02-20T15:12:59.876Z,19.25
2023-02-20T15:15:53.397Z,19.40
2023-02-20T15:18:48.326Z,19.61
2023-02-20T15:21:41.530Z,19.93
2023-02-20T15:24:41.649Z,20.04
2023-02-20T15:27:33.724Z,20.00
2023-02-20T15:30:22.739Z,20.04
2023-02-20T15:33:12.820Z,20.04
2023-02-20T15:36:02.622Z,19.93
2023-02-20T15:38:55.385Z,19.91
2023-02-20T15:41:46.310Z,19.75
2023-02-20T15:44:34.890Z,19.70
2023-02-20T15:47:24.808Z,19.42
2023-02-20T15:50:13.426Z,19.19
2023-02-20T15:53:05.269Z,19.17
2023-02-20T15:55:58.884Z,19.00
2023-02-20T15:58:49.973Z,18.76
2023-02-20T16:01:39.456Z,18.69
2023-02-20T16:04:29.038Z,18.53
2023-02-20T16:07:19.325Z,18.27
2023-02-20T16:10:09.384Z,18.03
2023-02-20T16:13:01.722Z,17.95
2023-02-20T16:15:51.693Z,17.81
2023-02-20T16:18:41.248Z,17.68
2023-02-20T16:21:30.502Z,17.45
2023-02-20T16:24:20.364Z,17.24
2023-02-20T16:27:23.885Z,17.03
2023-02-20T16:30:32.231Z,16.65
2023-02-20T16:33:25.232Z,16.39
2023-02-20T16:36:24.396Z,16.18
2023-02-20T16:39:21.006Z,15.98
2023-02-20T16:42:34.134Z,15.77
2023-02-20T16:45:23.016Z,15.60
2023-02-20T16:48:15.801Z,15.38
2023-02-20T16:51:07.006Z,15.26
2023-02-20T16:53:56.721Z,15.09
2023-02-20T16:56:45.383Z,14.94
2023-02-20T16:59:34.795Z,14.85
2023-02-20T17:02:25.177Z,14.77
2023-02-20T17:05:16.370Z,14.63
2023-02-20T17:08:07.254Z,14.51
2023-02-20T17:10:57.144Z,14.43
2023-02-20T17:13:46.173Z,14.34
2023-02-20T17:16:35.186Z,14.21
2023-02-20T17:19:23.900Z,14.01
2023-02-20T17:22:14.035Z,13.96
2023-02-20T17:25:04.020Z,13.90
2023-02-20T17:27:53.472Z,13.82
2023-02-20T17:30:42.815Z,13.78
2023-02-20T17:33:32.635Z,13.72
2023-02-20T17:36:21.284Z,13.63
2023-02-20T17:39:10.023Z,13.55
2023-02-20T17:42:00.511Z,13.41
2023-02-20T17:44:50.066Z,13.18
2023-02-20T17:47:39.848Z,12.97
2023-02-20T17:50:28.474Z,12.90
2023-02-20T17:53:17.950Z,12.88
2023-02-20T17:56:08.406Z,12.89
2023-02-20T17:58:58.390Z,12.87
2023-02-20T18:01:47.812Z,12.88
2023-02-20T18:04:36.582Z,12.89
2023-02-20T18:07:25.552Z,12.90
2023-02-20T18:10:14.177Z,12.88
2023-02-20T18:13:05.122Z,12.80
2023-02-20T18:15:55.146Z,12.78
2023-02-20T18:18:44.815Z,12.77
2023-02-20T18:21:33.506Z,12.76
2023-02-20T18:24:25.735Z,12.67
2023-02-20T18:27:14.576Z,12.66
2023-02-20T18:30:04.016Z,12.60
2023-02-20T18:32:53.965Z,12.54
2023-02-20T18:35:44.691Z,12.51
2023-02-20T18:38:33.663Z,12.51
2023-02-20T18:41:24.186Z,12.52
2023-02-20T18:44:12.810Z,12.51
2023-02-20T18:47:01.900Z,12.49
2023-02-20T18:49:52.106Z,12.50
2023-02-20T18:52:41.670Z,12.48
2023-02-20T18:55:30.447Z,12.41
2023-02-20T18:58:19.512Z,12.36
2023-02-20T19:01:09.673Z,12.31
2023-02-20T19:03:59.904Z,12.28
2023-02-20T19:06:51.978Z,12.25
2023-02-20T19:09:40.580Z,12.25
2023-02-20T19:12:29.710Z,12.25
2023-02-20T19:15:19.230Z,12.26
2023-02-20T19:18:07.855Z,12.25
2023-02-20T19:20:56.848Z,12.22
2023-02-20T19:23:48.971Z,12.16
2023-02-20T19:26:37.591Z,12.12
2023-02-20T19:29:26.638Z,12.07
2023-02-20T19:32:15.343Z,12.01
2023-02-20T19:35:04.672Z,11.86
2023-02-20T19:37:53.270Z,11.80
2023-02-20T19:40:44.088Z,11.78
2023-02-20T19:43:33.991Z,11.72
2023-02-20T19:46:26.136Z,11.69
2023-02-20T19:49:15.457Z,11.67
2023-02-20T19:52:04.157Z,11.56
2023-02-20T19:54:53.240Z,11.57
2023-02-20T19:57:43.929Z,11.51
2023-02-20T20:00:32.738Z,11.49
2023-02-20T20:03:22.606Z,11.46
2023-02-20T20:06:12.597Z,11.20
2023-02-20T20:09:12.577Z,11.15
2023-02-20T20:12:02.296Z,11.12
2023-02-20T20:14:53.110Z,11.13
2023-02-20T20:17:41.719Z,11.12
2023-02-20T20:20:33.163Z,11.02
2023-02-20T20:23:22.631Z,10.85
2023-02-20T20:26:12.964Z,10.81
2023-02-20T20:29:02.552Z,10.76
2023-02-20T20:31:53.042Z,10.69
2023-02-20T20:34:46.456Z,10.66
2023-02-20T20:37:36.108Z,10.63
2023-02-20T20:40:26.524Z,10.59
2023-02-20T20:43:16.941Z,10.46
2023-02-20T20:46:06.088Z,10.38
2023-02-20T20:48:56.605Z,10.19
2023-02-20T20:51:47.206Z,10.27
2023-02-20T20:54:36.639Z,10.23
2023-02-20T20:57:27.604Z,10.16
2023-02-20T21:00:22.430Z,10.07
2023-02-20T21:03:11.739Z,10.06
2023-02-20T21:06:02.533Z,10.07
2023-02-20T21:08:52.374Z,10.11
2023-02-20T21:11:41.630Z,10.06
2023-02-20T21:14:31.379Z,10.00
2023-02-20T21:17:21.861Z,9.85
2023-02-20T21:20:14.989Z,9.78
2023-02-20T21:23:06.573Z,9.74
2023-02-20T21:25:55.692Z,9.68
2023-02-20T21:28:44.321Z,9.67
2023-02-20T21:31:33.863Z,9.63
2023-02-20T21:34:26.314Z,9.51
2023-02-20T21:37:17.236Z,9.52
2023-02-20T21:40:07.982Z,9.49
2023-02-20T21:43:15.182Z,9.45
2023-02-20T21:46:03.822Z,9.38
2023-02-20T21:48:53.221Z,9.39
2023-02-20T21:51:41.952Z,9.22
2023-02-20T21:54:33.065Z,9.18
2023-02-20T21:57:26.448Z,9.01
2023-02-20T22:00:16.376Z,9.14
2023-02-20T22:03:04.643Z,9.06
2023-02-20T22:05:52.634Z,8.98
2023-02-20T22:08:59.426Z,8.91
2023-02-20T22:12:06.350Z,8.91
2023-02-20T22:15:13.925Z,8.92
2023-02-20T22:18:20.103Z,8.86
2023-02-20T22:21:26.744Z,8.72
2023-02-20T22:24:38.693Z,8.64
2023-02-20T22:27:46.301Z,8.61
2023-02-20T22:30:54.671Z,8.62
2023-02-20T22:34:01.196Z,8.61
2023-02-20T22:37:08.563Z,8.57
2023-02-20T22:40:15.063Z,8.53
2023-02-20T22:43:21.467Z,8.47
2023-02-20T22:46:29.522Z,8.44
2023-02-20T22:49:35.646Z,8.40
2023-02-20T22:52:42.489Z,8.39
2023-02-20T22:55:48.851Z,8.32
2023-02-20T22:58:55.132Z,8.20
2023-02-20T23:02:02.750Z,8.24
2023-02-20T23:05:10.100Z,8.33
2023-02-20T23:08:16.865Z,8.37
2023-02-20T23:11:24.546Z,8.36
2023-02-20T23:14:32.754Z,8.33
2023-02-20T23:17:40.431Z,8.29
2023-02-20T23:20:46.836Z,8.25
2023-02-20T23:23:52.952Z,8.18
2023-02-20T23:26:59.128Z,8.15
2023-02-20T23:30:05.433Z,8.18
2023-02-20T23:33:13.306Z,8.20
2023-02-20T23:36:19.627Z,8.22
2023-02-20T23:39:26.775Z,8.19
2023-02-20T23:42:32.938Z,8.17
2023-02-20T23:45:40.214Z,8.17
2023-02-20T23:48:48.058Z,8.17
2023-02-20T23:51:54.509Z,8.15
2023-02-20T23:55:00.957Z,8.10
2023-02-20T23:58:07.335Z,8.07
